Date,TemperatureHighF,TemperatureAvgF,TemperatureLowF,DewpointHighF,DewpointAvgF,DewpointLowF,HumidityHigh,HumidityAvg,HumidityLow,PressureMaxIn,PressureMinIn,WindSpeedMaxMPH,WindSpeedAvgMPH,GustSpeedMaxMPH,PrecipitationSumIn
2013-1-1,41,32,26,35,29,25,97,90,60,30.41,30.26,8,0,14,0.01
2013-1-2,44,38,36,25,21,18,62,50,42,30.26,30.10,19,5,22,0.00
2013-1-3,42,37,34,32,22,17,91,57,41,30.12,30.02,19,6,24,0.09
2013-1-4,47,40,35,46,39,32,100,95,75,30.24,30.08,12,1,12,0.14
2013-1-5,44,41,39,36,33,31,88,74,65,30.13,30.03,12,3,14,0.01
2013-1-6,44,40,37,41,38,34,98,92,84,30.12,29.91,6,1,11,0.04
2013-1-7,48,44,39,47,43,38,99,96,87,30.09,29.76,16,3,24,0.29
2013-1-8,52,46,40,49,44,39,100,91,79,30.09,29.66,13,2,26,0.39
2013-1-9,51,35,0,47,30,0,99,78,87,29.88,29.60,13,1,14,0.94
2013-1-10,36,34,31,35,33,30,99,96,92,30.04,29.87,6,0,6,0.08
2013-1-11,37,30,26,32,28,25,99,93,68,30.26,30.03,5,0,6,0.01
2013-1-12,35,28,24,30,24,22,98,88,61,30.36,30.24,7,0,11,0.01
2013-1-13,34,27,21,27,24,20,95,87,69,30.42,30.35,5,0,6,0.00
2013-1-14,36,32,28,31,28,26,94,86,72,30.49,30.38,3,0,5,0.00
2013-1-15,44,34,29,34,31,28,97,86,65,30.61,30.49,8,0,9,0.00
2013-1-16,44,32,26,36,30,25,99,92,71,30.59,30.43,5,0,6,0.01
2013-1-17,42,31,25,37,30,25,99,95,79,30.43,30.22,6,0,8,0.01
2013-1-18,35,30,25,34,29,25,99,98,97,30.27,30.18,7,0,8,0.01
2013-1-19,32,29,27,32,29,27,100,99,99,30.31,30.25,3,0,3,0.01
2013-1-20,33,29,26,33,28,25,100,99,98,30.32,30.19,3,0,3,0.00
2013-1-21,32,28,24,32,28,23,100,99,97,30.20,30.07,5,0,6,0.00
2013-1-22,39,30,23,37,30,22,100,98,74,30.07,29.84,6,1,7,0.01
2013-1-23,44,41,36,40,32,24,98,74,48,30.06,29.77,7,1,9,0.18
2013-1-24,45,40,34,40,38,33,99,90,65,30.14,29.98,5,2,7,0.14
2013-1-25,50,44,40,48,42,39,100,96,79,29.98,29.85,6,0,6,0.02
2013-1-26,46,40,36,45,38,36,99,91,72,29.96,29.79,12,2,16,0.04
2013-1-27,40,38,37,39,38,37,99,98,96,29.99,29.90,9,1,12,0.30
2013-1-28,40,38,37,40,38,37,100,100,99,30.02,29.93,7,1,7,0.52
2013-1-29,44,42,40,44,42,40,100,100,100,30.28,30.03,10,0,10,0.50
2013-1-30,46,45,43,46,45,43,100,100,100,30.31,30.25,6,1,7,0.27
2013-1-31,46,40,0,46,40,0,100,87,99,30.32,30.22,6,0,6,0.17
2013-2-1,51,45,39,49,44,38,100,96,79,30.31,30.25,6,0,8,0.04
2013-2-2,40,38,32,40,38,32,100,100,98,30.30,30.18,6,1,7,0.01
2013-2-3,44,40,32,44,40,32,100,100,98,30.23,30.13,3,0,5,0.08
2013-2-4,50,44,42,44,42,42,100,95,81,30.14,29.80,10,0,10,0.01
2013-2-5,48,44,42,44,42,41,97,93,78,29.87,29.75,12,1,16,0.32
2013-2-6,50,44,41,44,40,37,99,89,66,29.99,29.72,12,1,13,0.08
2013-2-7,48,41,33,40,36,31,96,81,55,30.10,29.72,19,1,31,0.09
2013-2-8,43,37,31,40,34,30,99,90,72,30.23,30.10,6,0,8,0.01
2013-2-9,43,39,37,41,38,35,99,95,85,30.25,30.18,4,0,4,0.03
2013-2-10,45,40,32,42,37,31,100,91,70,30.29,30.24,8,0,10,0.01
2013-2-11,46,41,37,41,38,36,98,89,71,30.28,30.24,6,0,6,0.00
2013-2-12,48,45,42,47,44,41,100,97,88,30.32,30.23,11,1,16,0.08
2013-2-13,47,44,42,45,42,39,97,90,81,30.42,30.23,17,1,17,0.05
2013-2-14,49,44,41,46,42,40,98,94,85,30.47,30.42,6,1,7,0.06
2013-2-15,56,44,37,48,42,37,100,93,68,30.46,30.10,6,0,7,0.01
2013-2-16,50,44,38,43,40,36,100,86,64,30.13,30.05,22,4,31,0.00
2013-2-17,45,41,39,38,35,32,91,79,64,30.17,30.04,10,1,13,0.02
2013-2-18,45,39,35,39,36,33,98,87,67,30.04,29.68,8,1,9,0.01
2013-2-19,49,40,33,36,34,31,95,78,53,29.93,29.65,12,1,15,0.00
2013-2-20,43,37,32,39,35,31,98,92,76,29.97,29.92,5,1,10,0.06
2013-2-21,42,39,36,40,38,36,100,96,89,30.01,29.93,11,2,13,0.10
2013-2-22,43,40,38,41,38,34,98,93,81,30.00,29.65,22,3,26,0.49
2013-2-23,47,40,38,39,35,34,91,83,64,30.30,29.84,12,2,12,0.00
2013-2-24,45,42,38,40,37,34,94,82,68,30.30,29.88,11,2,13,0.00
2013-2-25,49,42,39,40,36,28,96,80,46,30.23,29.83,29,4,29,0.14
2013-2-26,47,42,38,36,33,30,88,72,51,30.28,30.12,10,1,13,0.00
2013-2-27,50,42,0,44,40,0,99,90,72,30.22,30.12,6,1,10,0.28
2013-2-28,50,44,0,50,44,0,100,98,98,30.26,30.11,7,2,10,0.41
2013-3-1,58,53,50,51,50,48,100,88,73,30.29,30.21,13,2,20,0.14
2013-3-2,56,47,38,48,43,37,94,87,69,30.21,30.00,16,3,19,0.06
2013-3-3,47,40,32,37,34,30,97,81,53,30.23,30.11,11,1,11,0.00
2013-3-4,54,40,28,38,27,21,99,66,33,30.22,29.84,17,3,20,0.01
2013-3-5,52,46,41,39,31,22,90,58,38,29.84,29.63,12,2,14,0.00
2013-3-6,44,40,38,41,38,36,99,93,83,29.83,29.48,8,1,11,0.68
2013-3-7,50,42,36,44,40,35,100,92,67,30.01,29.83,6,1,7,0.35
2013-3-8,54,41,30,41,36,30,100,87,58,30.16,29.99,13,1,13,0.01
2013-3-9,56,42,32,41,36,32,100,79,44,30.42,30.16,11,1,12,0.00
2013-3-10,44,40,35,42,38,33,99,93,87,30.42,30.35,5,0,5,0.07
2013-3-11,52,40,0,47,38,0,100,85,74,30.37,30.10,5,0,5,0.07
2013-3-12,53,38,0,50,36,0,98,67,75,30.10,30.02,9,2,13,0.03
2013-3-13,52,49,0,51,49,0,100,96,93,30.13,30.02,7,1,8,0.19
2013-3-14,52,49,46,52,48,45,100,97,82,30.09,29.95,12,1,17,0.08
2013-3-15,52,50,47,50,49,46,100,96,93,30.14,30.06,7,1,7,0.00
2013-3-16,50,45,38,48,42,34,95,90,75,30.06,29.81,16,3,18,0.14
2013-3-17,46,40,38,36,34,32,91,80,58,30.13,29.91,19,3,20,0.00
2013-3-18,51,42,36,38,34,28,90,75,43,30.16,30.07,16,3,20,0.00
2013-3-19,54,42,32,42,33,25,97,76,34,30.15,29.51,19,4,25,0.13
2013-3-20,48,44,38,48,40,33,100,88,74,29.95,29.31,25,6,33,0.76
2013-3-21,47,37,32,35,33,30,100,87,54,30.15,29.96,19,2,22,0.16
2013-3-22,44,35,0,38,31,0,100,80,64,30.30,30.15,8,1,9,0.53
2013-3-23,51,42,33,33,30,24,87,63,36,30.31,30.21,10,2,11,0.03
2013-3-24,53,42,31,33,28,25,90,62,36,30.23,30.05,13,2,13,0.00
2013-3-25,63,51,41,36,29,24,61,42,27,30.05,29.84,11,2,12,0.00
2013-3-26,62,52,44,41,37,33,72,59,41,29.93,29.87,10,1,12,0.00
2013-3-27,57,49,43,51,43,39,95,81,60,29.91,29.85,5,0,6,0.01
2013-3-28,60,50,43,52,46,41,99,87,59,30.07,29.90,17,1,17,0.05
2013-3-29,66,52,42,49,45,42,99,78,45,30.16,30.07,13,1,14,0.00
2013-3-30,68,57,39,47,44,38,100,66,43,30.17,29.98,8,2,12,0.00
2013-3-31,71,65,49,51,45,28,80,49,37,29.98,29.81,11,2,11,0.01
2013-4-1,64,52,44,50,46,42,97,82,58,30.09,29.89,7,1,11,0.00
2013-4-2,53,50,47,48,46,45,95,89,82,30.13,30.08,5,0,7,0.00
2013-4-3,63,53,42,48,45,41,98,76,51,30.11,29.86,10,1,10,0.00
2013-4-4,56,52,48,55,49,44,97,92,79,29.86,29.57,7,1,10,0.13
2013-4-5,54,51,47,52,49,44,97,93,89,29.80,29.67,14,2,20,1.01
2013-4-6,49,47,44,46,44,42,96,91,88,29.87,29.64,11,2,11,0.22
2013-4-7,44,33,0,43,33,0,98,79,95,29.82,29.37,6,1,7,1.61
2013-4-8,53,45,40,47,42,39,98,91,71,30.20,29.83,6,0,8,0.02
2013-4-9,54,48,42,45,42,40,96,81,60,30.27,30.11,7,1,7,0.00
2013-4-10,57,50,46,49,44,40,91,80,61,30.18,29.86,19,4,24,0.03
2013-4-11,51,45,42,46,41,39,94,85,69,30.22,30.11,8,1,10,0.02
2013-4-12,46,42,38,42,39,35,97,88,72,30.11,29.64,19,1,26,0.38
2013-4-13,46,40,37,40,36,33,97,87,75,29.94,29.70,20,3,22,0.33
2013-4-14,53,42,36,43,38,33,98,85,47,29.95,29.84,12,1,13,0.42
2013-4-15,55,43,36,43,38,35,98,84,51,30.10,29.87,12,2,21,0.07
2013-4-16,54,43,34,43,37,33,99,80,48,30.32,30.11,11,1,12,0.03
2013-4-17,60,48,36,41,35,27,92,66,30,30.38,30.32,12,2,13,0.00
2013-4-18,50,46,41,47,42,37,97,87,70,30.38,30.16,7,1,11,0.20
2013-4-19,53,49,47,52,48,46,98,97,94,30.15,29.99,13,2,18,0.95
2013-4-20,52,48,45,49,45,42,97,90,75,30.22,30.14,16,2,19,0.04
2013-4-21,50,46,42,46,42,38,93,87,79,30.28,30.15,13,1,13,0.13
2013-4-22,60,48,34,43,34,22,97,63,24,30.42,30.29,13,2,18,0.00
2013-4-23,63,50,36,38,33,25,92,58,25,30.34,30.15,14,2,15,0.00
2013-4-24,69,55,39,40,34,24,86,50,20,30.24,29.98,12,1,13,0.00
2013-4-25,72,57,42,43,36,32,78,50,26,30.07,29.95,8,1,12,0.00
2013-4-26,70,57,43,48,43,38,96,64,31,30.17,30.07,13,1,13,0.00
2013-4-27,57,52,50,50,44,36,94,74,49,30.16,30.09,10,1,12,0.10
2013-4-28,56,51,46,47,43,38,93,76,52,30.13,29.90,18,4,21,0.03
2013-4-29,51,44,39,47,41,33,96,87,55,30.10,29.84,18,2,22,0.42
2013-4-30,53,44,36,38,33,24,91,68,32,30.36,30.10,12,1,12,0.00
2013-5-1,66,50,34,38,32,25,93,56,22,30.49,30.37,11,1,13,0.00
2013-5-2,71,56,40,44,39,30,92,56,28,30.45,30.28,16,2,16,0.00
2013-5-3,71,59,45,47,43,38,83,57,38,30.30,30.14,13,2,18,0.00
2013-5-4,76,62,45,49,43,36,94,55,24,30.14,29.90,12,2,14,0.00
2013-5-5,83,65,48,52,45,38,85,54,21,29.91,29.70,17,2,17,0.00
2013-5-6,87,75,53,49,42,31,62,33,15,29.75,29.67,11,2,13,0.00
2013-5-7,71,60,50,54,50,46,93,72,50,29.94,29.73,10,1,11,0.00
2013-5-8,67,56,50,56,50,47,96,83,59,30.07,29.93,7,0,8,0.00
2013-5-9,70,58,48,55,52,47,98,82,55,30.13,30.04,11,1,12,0.00
2013-5-10,79,65,49,57,52,48,97,68,36,30.11,30.03,11,1,13,0.00
2013-5-11,82,67,54,58,51,43,86,59,32,30.10,29.92,8,1,11,0.00
2013-5-12,71,63,57,59,57,52,96,81,54,30.03,29.94,10,1,11,0.26
2013-5-13,65,54,0,60,50,0,97,87,66,30.12,29.85,28,2,32,0.42
2013-5-14,65,50,0,47,36,-2,92,61,29,30.15,30.04,8,1,9,0.00
2013-5-15,65,52,43,50,44,39,94,76,46,30.05,29.94,12,1,16,0.06
2013-5-16,71,53,0,56,44,0,98,65,39,29.94,29.78,12,1,13,0.02
2013-5-17,59,54,51,56,51,47,97,90,79,30.00,29.87,6,1,6,0.09
2013-5-18,57,54,49,53,47,42,94,80,65,30.19,30.00,6,1,8,0.00
2013-5-19,63,54,49,50,49,41,93,83,58,30.32,30.19,10,1,12,0.00
2013-5-20,68,55,47,50,48,46,97,79,48,30.28,29.81,7,1,8,0.00
2013-5-21,56,50,45,50,45,41,96,83,57,29.81,29.70,17,2,20,0.10
2013-5-22,50,45,40,47,43,39,97,94,84,29.86,29.79,6,1,8,0.67
2013-5-23,57,49,44,49,46,40,97,87,52,29.94,29.85,13,1,15,0.19
2013-5-24,62,53,46,49,48,44,97,83,53,29.99,29.89,7,1,10,0.11
2013-5-25,64,54,48,49,46,42,97,77,45,29.98,29.89,8,1,11,0.00
2013-5-26,63,54,48,54,50,45,96,86,60,29.92,29.86,11,1,12,0.34
2013-5-27,58,53,48,55,52,47,98,94,85,29.90,29.64,8,1,11,0.37
2013-5-28,59,54,50,54,51,49,97,91,71,29.81,29.69,11,0,17,0.12
2013-5-29,57,52,48,54,49,45,97,88,67,29.90,29.60,13,1,19,0.13
2013-5-30,60,52,46,50,47,44,95,82,57,30.18,29.91,17,1,19,0.02
2013-5-31,66,56,48,50,46,41,97,72,42,30.26,30.17,10,1,11,0.00
2013-6-1,72,60,48,50,47,39,93,65,32,30.16,29.96,10,1,12,0.00
2013-6-2,68,59,52,50,48,45,88,68,45,30.02,29.97,8,1,12,0.00
2013-6-3,72,59,48,53,50,46,96,74,44,30.05,29.98,10,1,12,0.00
2013-6-4,80,65,48,57,52,47,96,66,31,30.05,29.94,10,1,12,0.00
2013-6-5,79,66,53,57,53,46,91,64,42,30.00,29.94,11,1,12,0.00
2013-6-6,79,66,51,59,51,41,95,63,29,29.97,29.92,10,1,14,0.00
2013-6-7,70,60,53,55,49,41,87,68,38,30.06,29.95,14,1,18,0.00
2013-6-8,68,59,53,52,50,46,83,72,52,30.10,30.01,8,1,11,0.00
2013-6-9,68,59,52,50,46,44,81,64,42,30.02,29.93,11,2,13,0.00
2013-6-10,70,59,49,48,45,38,81,61,32,29.95,29.81,12,2,14,0.00
2013-6-11,64,56,49,54,46,43,85,72,50,30.05,29.88,19,1,19,0.07
2013-6-12,58,52,49,51,48,45,95,85,66,30.08,30.05,6,0,8,0.32
2013-6-13,66,57,50,53,50,47,97,80,52,30.16,30.07,7,1,14,0.03
2013-6-14,66,58,51,51,48,48,89,73,51,30.17,29.98,9,1,14,0.00
2013-6-15,78,63,46,56,50,43,96,66,29,29.98,29.84,11,1,15,0.00
2013-6-16,73,62,52,62,53,49,93,73,50,30.02,29.92,8,1,12,0.01
2013-6-17,75,63,52,56,52,48,96,71,39,30.02,29.82,19,1,25,0.08
2013-6-18,71,61,54,56,51,42,97,73,36,29.91,29.80,18,1,21,0.01
2013-6-19,66,57,51,55,51,45,95,81,48,29.94,29.84,12,1,14,0.03
2013-6-20,58,55,52,53,51,49,95,87,73,30.03,29.89,12,1,20,0.14
2013-6-21,68,58,51,55,52,49,97,81,53,30.08,30.03,6,0,7,0.02
2013-6-22,77,65,50,56,52,48,97,67,39,30.04,29.77,9,1,11,0.00
2013-6-23,70,64,58,63,59,55,95,85,69,29.77,29.52,9,0,11,0.16
2013-6-24,66,60,55,59,56,53,97,88,65,29.64,29.50,11,1,21,0.27
2013-6-25,74,60,54,60,56,52,97,86,49,29.79,29.59,13,1,24,0.28
2013-6-26,73,62,55,61,57,54,97,85,56,30.00,29.77,12,1,14,0.05
2013-6-27,72,63,58,64,60,57,97,90,65,30.12,29.96,5,0,7,0.09
2013-6-28,87,73,61,68,62,59,97,73,39,30.11,29.97,10,1,12,0.00
2013-6-29,86,73,64,63,60,56,94,66,40,30.03,29.92,7,0,9,0.00
2013-6-30,92,77,59,66,63,58,96,66,34,29.94,29.77,11,1,13,0.00
2013-7-1,90,78,64,67,63,59,89,63,36,29.94,29.82,8,1,10,0.00
2013-7-2,82,70,60,63,58,47,92,67,30,30.03,29.95,11,1,12,0.00
2013-7-3,80,70,61,57,49,35,66,48,36,30.07,29.97,11,2,13,0.00
2013-7-4,70,61,56,56,53,49,90,75,52,30.06,29.97,8,0,8,0.00
2013-7-5,72,63,56,57,54,51,91,74,52,29.97,29.89,8,0,11,0.00
2013-7-6,78,62,52,58,54,51,97,78,42,29.91,29.79,11,1,12,0.00
2013-7-7,76,64,55,60,56,53,94,77,50,29.88,29.82,6,0,7,0.00
2013-7-8,78,64,55,59,55,52,91,76,47,30.02,29.88,10,1,12,0.00
2013-7-9,84,70,56,60,56,49,95,64,37,30.02,29.92,11,1,14,0.00
2013-7-10,72,62,55,58,54,50,94,76,54,29.99,29.87,7,1,14,0.00
2013-7-11,71,60,52,53,48,45,85,66,42,30.00,29.91,8,1,13,0.00
2013-7-12,67,58,51,54,49,44,93,73,56,30.03,29.92,9,1,12,0.00
2013-7-13,76,62,48,53,49,43,97,66,32,30.11,30.03,11,1,13,0.00
2013-7-14,82,67,50,54,47,39,92,53,22,30.05,29.91,10,1,12,0.00
2013-7-15,80,67,52,55,49,44,86,56,34,29.95,29.81,13,2,17,0.00
2013-7-16,85,71,54,63,53,45,87,56,26,29.81,29.72,11,1,14,0.00
2013-7-17,68,66,64,63,61,59,88,83,78,29.89,29.81,8,1,8,0.02
2013-7-19,80,72,63,61,60,58,85,65,51,29.98,29.96,9,1,11,0.00
2013-7-20,76,63,56,60,57,54,96,82,54,30.01,29.89,7,1,10,0.00
2013-7-21,76,63,55,61,57,54,96,81,56,29.90,29.83,7,0,7,0.00
2013-7-22,78,64,56,61,57,54,97,80,51,29.99,29.87,8,0,10,0.02
2013-7-23,85,70,55,61,57,52,97,68,35,29.98,29.89,13,1,16,0.00
2013-7-24,85,71,56,59,53,38,92,57,31,29.97,29.91,10,1,14,0.00
2013-7-25,85,70,53,56,50,38,90,54,23,30.01,29.93,11,1,13,0.00
2013-7-26,84,70,52,55,48,34,80,49,22,30.06,29.98,12,2,14,0.00
2013-7-27,77,65,52,54,49,36,88,59,31,30.08,29.92,10,1,16,0.00
2013-7-28,70,59,50,56,52,49,95,79,58,29.95,29.89,10,1,12,0.00
2013-7-29,74,62,55,57,53,52,90,74,48,29.93,29.88,8,0,8,0.00
2013-7-30,77,65,53,58,55,52,96,73,47,30.05,29.93,8,1,12,0.00
2013-7-31,69,61,55,62,57,54,96,88,70,30.04,29.92,6,0,6,0.00
2013-8-1,64,59,55,59,55,53,96,86,74,30.01,29.96,7,0,7,0.01
2013-8-2,62,59,57,58,56,53,96,89,80,30.06,29.99,5,0,7,0.10
2013-8-3,70,63,58,61,58,56,97,85,67,30.05,29.98,6,0,7,0.01
2013-8-4,82,68,57,62,59,55,96,74,48,29.98,29.86,12,1,13,0.00
2013-8-5,85,72,58,62,58,51,96,65,34,29.93,29.84,12,1,16,0.00
2013-8-6,86,70,56,60,55,45,95,63,25,29.92,29.83,12,1,13,0.00
2013-8-7,86,70,55,59,54,49,93,62,29,29.94,29.86,10,1,13,0.00
2013-8-8,81,67,55,60,57,53,95,71,44,29.96,29.86,11,1,13,0.00
2013-8-9,81,69,56,59,56,54,95,68,43,29.87,29.77,10,1,11,0.00
2013-8-10,77,65,60,63,60,57,96,85,58,29.94,29.81,6,1,11,0.05
2013-8-11,76,66,57,60,57,53,91,73,50,29.99,29.91,9,1,12,0.00
2013-8-12,77,67,59,57,55,54,89,68,46,29.99,29.93,12,1,12,0.00
2013-8-13,81,68,55,56,54,49,94,64,34,30.02,29.84,10,1,12,0.00
2013-8-14,83,66,57,61,57,52,94,73,37,29.90,29.83,10,0,16,0.02
2013-8-15,68,65,61,66,63,60,97,94,88,29.92,29.84,5,0,5,0.19
2013-8-16,83,72,63,65,60,47,97,71,32,29.94,29.87,11,1,11,0.00
2013-8-17,77,68,60,60,57,53,84,68,49,30.00,29.93,11,1,14,0.00
2013-8-18,78,66,60,59,57,54,88,73,47,30.05,30.00,10,1,14,0.00
2013-8-19,65,63,62,53,51,49,67,65,62,30.02,30.00,11,2,13,0.00
2013-8-20,76,66,59,55,50,46,69,57,42,30.07,29.99,14,2,15,0.00
2013-8-21,83,67,52,56,52,47,92,61,36,30.00,29.85,12,1,13,0.00
2013-8-22,84,70,54,59,55,51,92,61,37,29.86,29.74,7,0,8,0.00
2013-8-23,73,65,60,59,56,54,87,75,57,29.82,29.75,11,1,11,0.00
2013-8-24,73,64,58,59,55,47,95,74,42,29.83,29.78,6,0,8,0.03
2013-8-25,72,62,54,62,55,50,93,78,54,29.85,29.80,7,0,11,0.02
2013-8-26,75,63,57,61,57,53,97,82,53,29.88,29.78,12,1,13,0.06
2013-8-27,79,67,59,62,58,56,95,76,50,29.88,29.72,8,1,11,0.00
2013-8-28,78,68,60,65,61,57,97,80,56,29.82,29.74,8,1,9,0.30
2013-8-29,75,65,62,67,63,61,97,92,68,29.95,29.78,12,1,13,1.08
2013-8-30,77,67,60,63,58,51,97,77,41,30.08,29.96,9,0,10,0.03
2013-8-31,81,67,53,60,57,52,97,74,44,30.00,29.75,12,1,13,0.00
2013-9-1,81,68,58,60,58,56,97,72,45,29.82,29.72,10,1,11,0.00
2013-9-2,80,69,58,59,56,54,88,67,43,29.86,29.78,12,1,13,0.00
2013-9-3,73,64,59,64,60,57,97,87,56,29.94,29.85,8,1,8,0.13
2013-9-4,69,63,57,64,59,56,97,88,75,29.98,29.90,10,1,12,0.01
2013-9-5,69,62,58,62,59,57,100,92,76,29.96,29.85,13,1,14,0.77
2013-9-6,70,62,59,63,60,58,98,93,73,30.05,29.88,7,0,10,0.74
2013-9-7,74,64,59,62,59,57,97,86,58,30.04,29.94,7,0,9,0.00
2013-9-8,78,66,57,63,59,55,98,81,52,30.03,29.95,11,1,13,0.00
2013-9-9,78,65,56,63,59,55,97,83,57,29.99,29.90,10,1,11,0.01
2013-9-10,82,67,57,64,60,56,98,81,51,29.91,29.80,7,0,8,0.00
2013-9-11,91,72,56,67,61,55,97,72,37,29.85,29.79,6,0,10,0.01
2013-9-12,79,67,60,64,61,58,97,82,54,29.92,29.83,7,0,8,0.00
2013-9-13,64,62,59,61,60,58,97,94,87,29.89,29.80,3,0,3,0.02
2013-9-14,67,63,60,62,60,58,96,91,82,29.80,29.65,6,0,6,0.00
2013-9-15,64,60,0,62,57,0,98,93,90,29.75,29.63,3,0,5,0.03
2013-9-22,57,54,53,54,52,51,96,94,89,29.69,29.56,6,0,8,0.27
2013-9-23,58,53,0,55,44,0,97,79,86,29.89,29.69,12,2,12,0.34
2013-9-24,62,53,48,54,30,0,98,52,57,29.88,29.76,11,1,15,0.06
2013-9-25,58,50,46,52,48,45,98,93,67,29.96,29.77,6,0,7,0.04
2013-9-26,61,50,42,54,46,42,98,87,60,30.06,29.95,11,1,13,0.01
2013-9-27,54,51,47,53,49,46,96,93,83,30.05,29.78,6,1,8,0.07
2013-9-28,59,54,50,58,53,49,98,96,94,29.78,29.27,21,2,29,2.54
2013-9-29,54,51,49,52,49,47,97,93,88,29.51,29.10,19,3,22,0.73
2013-9-30,55,49,46,53,48,45,98,95,83,29.86,29.40,17,2,20,1.09
2013-10-1,55,48,45,49,46,44,97,94,76,30.06,29.85,11,1,14,0.33
2013-10-2,53,49,47,49,47,46,97,92,79,30.09,29.98,8,0,8,0.44
2013-10-3,54,47,28,50,45,27,98,93,74,30.37,30.10,5,0,5,0.03
2013-10-4,63,50,38,51,45,38,98,85,55,30.40,30.27,10,0,10,0.00
2013-10-5,71,55,43,52,47,41,97,77,43,30.27,30.05,6,0,8,0.01
2013-10-6,77,58,44,53,46,38,95,71,25,30.05,29.82,10,1,14,0.00
2013-10-7,59,52,50,53,49,44,97,88,59,29.94,29.84,14,2,25,0.22
2013-10-8,54,50,42,48,46,41,96,86,67,30.00,29.89,8,1,19,0.18
2013-10-9,59,47,37,47,42,36,98,85,57,30.06,29.88,5,0,6,0.00
2013-10-10,59,49,43,50,46,41,97,88,59,29.99,29.85,7,0,7,0.06
2013-10-11,56,51,47,52,48,46,98,92,74,30.06,29.98,5,0,6,0.18
2013-10-12,56,49,45,50,47,43,98,91,71,30.13,29.99,8,0,12,0.21
2013-10-13,54,45,39,48,43,38,99,94,76,30.28,30.13,6,0,6,0.01
2013-10-14,60,47,37,48,43,37,99,88,57,30.34,30.28,7,0,9,0.01
2013-10-15,60,48,39,49,44,38,99,87,60,30.31,30.09,7,0,11,0.00
2013-10-16,53,47,41,49,45,40,99,93,83,30.12,30.06,6,0,8,0.00
2013-10-17,56,47,43,50,46,42,98,94,79,30.19,30.12,5,0,5,0.01
2013-10-18,58,46,38,51,44,37,99,94,74,30.16,30.07,6,0,8,0.00
2013-10-19,48,44,40,48,43,40,99,98,97,30.10,30.06,5,0,5,0.02
2013-10-22,46,45,43,45,44,42,97,97,95,29.97,29.95,0,0,0,0.00
2013-10-23,59,46,38,54,44,38,99,95,75,29.97,29.90,5,0,5,0.02
2013-10-24,49,45,41,49,45,40,100,99,97,30.05,29.93,3,0,6,0.01
2013-10-25,51,47,42,50,46,41,100,99,97,30.23,30.05,3,0,6,0.01
2013-10-26,49,46,41,46,44,41,99,95,88,30.26,30.12,7,0,10,0.01
2013-10-27,50,46,43,48,45,42,98,95,88,30.12,29.83,12,0,17,0.05
2013-10-28,57,47,40,47,39,33,99,76,42,29.87,29.81,15,1,17,0.01
2013-10-29,57,44,33,38,34,30,90,70,41,29.96,29.87,8,1,9,0.00
2013-10-30,56,47,38,46,40,34,88,77,58,30.06,29.95,9,1,13,0.01
2013-10-31,52,49,46,51,48,42,98,95,79,30.18,30.02,3,0,6,0.08
2013-11-1,62,54,49,53,50,47,99,88,60,30.20,29.76,5,0,6,0.00
2013-11-2,53,49,43,50,44,38,98,84,68,29.82,29.45,29,5,38,0.46
2013-11-3,50,44,39,41,38,35,93,83,56,30.03,29.82,13,1,14,0.00
2013-11-4,50,43,36,40,36,29,98,79,45,30.10,29.98,8,1,12,0.03
2013-11-5,51,47,42,50,44,39,99,91,77,30.17,29.93,13,1,13,0.15
2013-11-6,53,47,43,47,44,42,98,91,75,30.23,29.96,12,1,18,0.05
2013-11-7,48,47,45,47,45,44,97,95,86,29.99,29.66,22,4,26,1.42
2013-11-8,53,47,43,45,43,41,95,87,72,30.09,29.90,12,1,14,0.00
2013-11-9,50,44,38,46,42,38,98,94,83,30.08,29.99,5,0,5,0.10
2013-11-10,50,46,44,48,45,43,99,96,89,30.06,30.00,5,0,7,0.01
2013-11-14,45,42,40,44,42,40,99,98,96,30.04,30.00,1,0,2,0.29
2013-11-15,46,42,40,45,42,39,99,98,90,29.99,29.26,14,2,26,0.27
2013-11-16,45,42,39,42,38,37,94,86,75,29.70,29.28,12,1,17,0.02
2013-11-17,48,45,42,47,43,37,98,92,84,29.84,29.70,12,1,13,0.36
2013-11-18,51,48,46,50,48,45,100,98,95,29.83,29.49,11,1,12,0.90
2013-11-19,52,43,37,51,39,23,96,86,56,29.97,29.49,14,2,18,0.10
2013-11-20,42,35,28,33,27,23,94,75,47,30.42,29.97,7,0,11,0.00
2013-11-21,44,32,24,33,26,23,97,82,47,30.58,30.42,5,0,6,0.00
2013-11-22,47,34,26,32,26,23,94,77,39,30.56,30.37,7,0,8,0.00
2013-11-23,50,38,30,35,29,19,87,70,50,30.37,30.12,6,0,8,0.00
2013-11-24,52,38,29,37,32,28,97,79,52,30.17,30.07,6,0,6,0.01
2013-11-25,60,45,36,43,32,26,79,62,40,30.23,30.17,3,0,3,0.00
2013-11-26,60,44,32,40,33,27,86,66,37,30.18,30.01,5,0,6,0.00
2013-11-27,57,46,40,42,37,30,86,70,51,30.01,29.87,5,0,8,0.00
2013-11-28,54,44,37,43,36,30,92,74,53,30.10,29.93,6,0,8,0.00
2013-11-29,46,43,38,46,41,34,99,91,76,30.24,30.10,6,0,8,0.04
2013-11-30,49,46,42,48,45,42,99,96,88,30.26,30.03,8,1,8,0.20
2013-12-1,52,49,44,51,47,36,99,91,75,30.03,29.69,27,6,31,0.14
2013-12-2,44,38,34,36,33,31,96,82,65,29.97,29.72,18,1,21,0.03
2013-12-3,38,32,26,33,26,23,97,79,57,30.23,29.97,11,1,12,0.01
2013-12-4,37,28,22,26,22,20,93,79,51,30.27,30.21,6,0,7,0.01
2013-12-5,32,26,22,21,17,11,85,68,50,30.24,30.11,13,1,17,0.00
2013-12-6,28,25,21,11,6,3,54,45,38,30.15,30.06,15,3,21,0.00
2013-12-7,28,20,13,12,5,-2,77,55,27,30.35,30.14,8,0,10,0.00
2013-12-8,32,22,14,17,11,7,78,64,42,30.51,30.35,7,1,10,0.00
2013-12-9,32,25,17,26,18,12,90,73,56,30.50,30.42,3,0,3,0.00
2013-12-10,39,33,28,35,30,26,95,90,77,30.42,30.33,3,0,3,0.00
2013-12-11,41,32,28,36,30,26,97,91,73,30.34,30.09,6,0,6,0.00
2013-12-12,41,36,28,41,34,26,99,93,73,30.09,29.98,5,0,7,0.28
2013-12-13,46,42,0,46,42,0,100,95,99,30.34,30.06,5,0,8,0.12
2013-12-14,44,36,0,44,35,0,100,83,100,30.36,30.25,3,0,5,0.00
2013-12-15,47,46,46,46,46,45,98,98,97,30.37,30.35,2,0,3,0.09
2013-12-16,37,37,36,37,36,36,99,99,99,30.19,30.19,0,0,0,0.09
2013-12-17,44,39,34,43,38,34,100,99,96,30.19,30.04,6,0,8,0.05
2013-12-18,43,39,32,43,38,31,99,99,98,30.08,29.94,11,0,11,0.31
2013-12-19,35,30,27,32,29,26,99,95,82,30.27,30.06,3,0,6,0.01
2013-12-20,34,32,28,34,31,26,98,97,91,30.13,29.65,6,0,7,0.03
2013-12-21,44,26,-13,44,26,-13,100,87,98,30.10,29.74,7,0,10,0.84
2013-12-22,48,46,43,48,46,43,100,100,100,30.22,30.09,5,0,7,0.43
2013-12-23,50,46,42,49,44,39,100,92,72,30.43,30.08,20,2,26,0.11
2013-12-24,47,41,32,42,37,31,98,88,68,30.54,30.43,6,0,7,0.00
2013-12-25,41,34,28,39,33,27,100,97,85,30.45,30.31,3,0,3,0.01
2013-12-26,47,36,31,42,35,30,100,95,76,30.31,30.13,3,0,5,0.00
2013-12-27,44,39,32,44,39,31,100,100,98,30.29,30.06,7,0,8,0.09
2013-12-28,45,41,32,45,41,32,100,99,94,30.44,30.29,5,0,6,0.01
2013-12-29,40,36,31,40,36,31,100,100,99,30.40,30.23,3,0,3,0.01
2013-12-30,44,39,34,44,39,34,100,99,90,30.24,30.06,11,1,14,0.02
2013-12-31,45,34,0,45,34,0,100,78,91,30.30,30.12,4,0,6,0.04
2014-1-1,43,38,33,43,38,33,100,100,100,30.32,30.17,5,0,6,0.01
2014-1-2,48,39,0,46,38,0,100,89,85,30.17,29.84,10,0,12,0.84